»·PEaware :: N728CS KSBP-KPSP

N728CS :: KSBP-KPSP

FLIGHT INFORMATION

Flight Status: Arrived
Operator: Privately registered:
United States
More flights under this callsign
Pilot: Chandler S. (807)
Aircraft: SOCATA TBM-900
(TBM9)
More flights by this aircraft type
Origin: KSBP San Luis Co Regl
United States
Destination: KPSP Palm Springs Intl
United States
More flights between these airports :: More routes between these airports
Route: +RZS PMD V386 PSP
File this flight plan on PilotEdge
Remarks:
Altitude:
(Current/Filed)
21,000ft
Speed:
(Current/Filed)
300kts
Departed: 12-Feb-20 12:08 PM
Arrived: 12-Feb-20 01:14 PM
Distance/Time
Traveled:
221nm/1:05
Distance/Time
To Go:
Arrived

Flight Plot

Page will automatically refresh every two minutes.

Flight plan parsing failed; only flown route is shown


Map Options




Map Legend


Flown Route
Filed Route
Departure Airport
Arrival Airport
Navaid (VOR, NDB)
Fix

Horizontal Profiles

Position Reports

Time Latitude Longitude Heading Altitude Ground
Speed
12-Feb-20 11:51 35.238869 -120.638649 270 214ft 0kts
12-Feb-20 11:52 35.238869 -120.638649 270 214ft 0kts
12-Feb-20 11:53 35.238869 -120.638649 270 214ft 0kts
12-Feb-20 11:54 35.238869 -120.638735 270 214ft 0kts
12-Feb-20 11:55 35.238869 -120.638735 270 214ft 0kts
12-Feb-20 11:56 35.238869 -120.638735 270 214ft 0kts
12-Feb-20 11:57 35.238869 -120.638735 270 214ft 0kts
12-Feb-20 11:58 35.238869 -120.638735 270 214ft 0kts
12-Feb-20 11:59 35.238869 -120.638735 270 214ft 0kts
12-Feb-20 12:00 35.238869 -120.638735 270 214ft 0kts
12-Feb-20 12:01 35.238869 -120.638735 270 214ft 0kts
12-Feb-20 12:02 35.238869 -120.638735 270 214ft 0kts
12-Feb-20 12:03 35.238869 -120.638735 270 214ft 0kts
12-Feb-20 12:04 35.238559 -120.639543 220 214ft 13kts
12-Feb-20 12:05 35.236035 -120.636786 123 214ft 15kts
12-Feb-20 12:05 35.233634 -120.632604 125 214ft 11kts
12-Feb-20 12:07 35.232771 -120.633038 303 214ft 11kts
12-Feb-20 12:07 35.246368 -120.656951 305 986ft 143kts
12-Feb-20 12:08 35.267862 -120.696494 304 3319ft 139kts
12-Feb-20 12:09 35.289166 -120.737252 304 5029ft 160kts
12-Feb-20 12:10 35.315914 -120.788184 304 5007ft 188kts
12-Feb-20 12:11 35.337367 -120.845733 246 5269ft 194kts
12-Feb-20 12:12 35.292223 -120.842403 152 7414ft 177kts
12-Feb-20 12:13 35.248601 -120.815928 152 9271ft 178kts
12-Feb-20 12:14 35.203373 -120.788322 152 10888ft 185kts
12-Feb-20 12:15 35.159720 -120.755647 124 12449ft 183kts
12-Feb-20 12:16 35.127474 -120.705833 124 14143ft 189kts
12-Feb-20 12:17 35.095038 -120.656103 124 15853ft 189kts
12-Feb-20 12:18 35.061647 -120.605011 124 17360ft 194kts
12-Feb-20 12:19 35.027846 -120.553388 124 18852ft 193kts
12-Feb-20 12:20 34.993571 -120.501095 124 20388ft 201kts
12-Feb-20 12:21 34.956223 -120.444155 125 21199ft 246kts
12-Feb-20 12:22 34.908847 -120.372193 125 21174ft 288kts
12-Feb-20 12:23 34.859959 -120.298045 126 21154ft 301kts
12-Feb-20 12:24 34.807876 -120.219215 126 21149ft 305kts
12-Feb-20 12:25 34.754371 -120.138414 126 21145ft 307kts
12-Feb-20 12:26 34.700513 -120.057263 126 21144ft 307kts
12-Feb-20 12:27 34.646587 -119.976193 126 21147ft 307kts
12-Feb-20 12:28 34.592779 -119.895489 126 21160ft 307kts
12-Feb-20 12:29 34.538716 -119.814586 126 21174ft 307kts
12-Feb-20 12:30 34.513261 -119.723944 78 21191ft 289kts
12-Feb-20 12:31 34.520801 -119.626313 78 21184ft 290kts
12-Feb-20 12:32 34.528270 -119.529116 78 21184ft 290kts
12-Feb-20 12:33 34.535704 -119.431360 78 21187ft 290kts
12-Feb-20 12:34 34.542344 -119.343152 78 21189ft 290kts
12-Feb-20 12:35 34.549528 -119.246672 78 21189ft 290kts
12-Feb-20 12:36 34.556720 -119.149110 78 21186ft 290kts
12-Feb-20 12:37 34.563894 -119.050813 78 21186ft 297kts
12-Feb-20 12:38 34.571250 -118.949128 80 21183ft 304kts
12-Feb-20 12:39 34.578587 -118.846116 81 21182ft 308kts
12-Feb-20 12:40 34.585877 -118.742074 81 21186ft 309kts
12-Feb-20 12:41 34.593153 -118.637295 81 21193ft 310kts
12-Feb-20 12:42 34.600335 -118.532636 81 21196ft 310kts
12-Feb-20 12:43 34.607461 -118.427473 81 21177ft 311kts
12-Feb-20 12:44 34.614415 -118.323541 82 21156ft 311kts
12-Feb-20 12:45 34.621379 -118.218046 82 21150ft 310kts
12-Feb-20 12:46 34.628215 -118.113145 82 21147ft 310kts
12-Feb-20 12:47 34.626580 -118.008099 93 21146ft 313kts
12-Feb-20 12:48 34.617257 -117.902323 93 21146ft 313kts
12-Feb-20 12:49 34.607925 -117.797078 93 21149ft 313kts
12-Feb-20 12:50 34.598490 -117.691721 93 21162ft 313kts
12-Feb-20 12:51 34.588990 -117.586672 93 21177ft 313kts
12-Feb-20 12:52 34.579332 -117.480893 93 21180ft 313kts
12-Feb-20 12:53 34.569576 -117.375071 93 21183ft 313kts
12-Feb-20 12:54 34.559732 -117.269301 94 21172ft 313kts
12-Feb-20 12:55 34.549786 -117.163429 94 21058ft 317kts
12-Feb-20 12:56 34.539711 -117.057401 93 21029ft 314kts
12-Feb-20 12:57 34.529585 -116.951682 93 21029ft 313kts
12-Feb-20 12:58 34.519424 -116.846393 92 21027ft 313kts
12-Feb-20 12:59 34.509192 -116.741361 92 21028ft 313kts
12-Feb-20 13:00 34.463042 -116.661641 164 19915ft 315kts
12-Feb-20 13:01 34.382161 -116.630521 163 18435ft 299kts
12-Feb-20 13:02 34.303803 -116.599661 163 16841ft 293kts
12-Feb-20 13:03 34.226782 -116.569361 163 15254ft 289kts
12-Feb-20 13:04 34.151079 -116.539628 163 13525ft 282kts
12-Feb-20 13:05 34.077283 -116.510714 162 11731ft 272kts
12-Feb-20 13:06 34.008401 -116.483767 162 11013ft 245kts
12-Feb-20 13:07 33.951958 -116.444253 141 10234ft 232kts
12-Feb-20 13:08 33.900666 -116.399319 141 8116ft 224kts
12-Feb-20 13:09 33.861801 -116.428710 275 5844ft 221kts
12-Feb-20 13:10 33.880049 -116.498121 294 3352ft 218kts
12-Feb-20 13:11 33.882853 -116.554418 195 2605ft 180kts
12-Feb-20 13:12 33.846918 -116.523292 140 944ft 121kts
12-Feb-20 13:13 33.828864 -116.507681 255 480ft 16kts
12-Feb-20 13:14 33.828671 -116.508834 265 480ft 5kts
12-Feb-20 13:15 33.825589 -116.509810 236 480ft 10kts
12-Feb-20 13:16 33.825735 -116.509921 56 480ft 0kts
12-Feb-20 13:17 33.825735 -116.509921 56 480ft 0kts

Navigation Log

Ident Type
Flight plan parsing failed, navigation log unavailable